Beauharnois, Canada
Current Conditions -  °F | °C
As of 6:00 AM on Friday 19 Dec 2014 (Local Time) from CYUL Reporting Station
Broken Clouds Broken Clouds  
Wind Chill: 18°   Ceiling: 2600
Heat Index: 25°   Visibility: 15mi
Dew Point: 19°   Wind: 6mph
Humidity: 80%   Direction: 290°WNW
Pressure: 30.01"   Gusts: NA
Location:  45.32°N, 73.87°W
Report Text: CYUL 191100Z 29005KT 15SM BKN026 M04/M07 A3001 RMK SC7 SLP164
Loading
Personal Weather Stations






























Interactive Weather Map New forecast layout! Learn more

10-Day Weather Forecast

Advertisements
Track Severe Weather on mobile